Bristol, NH (03222)

12:24 PM EDT del 23 Maggio 2015 (GMT -0400)
Bristol Village | | Change Station
CLOSE
Current Station
Stazione meteo personale
Location: Bristol, NH
Altitudine: 515 ft
Stazioni meteo nelle vicinanze

Alt. 515 ft 43.59 °N, 71.74 °W | Updated 4 seconds ago

Sereno
Sereno
57.1 °F
Sembra 57.1 °F
N
4.0
Vento Variabile Vento da NO
Gusts 11.0 mph

Oggi
Massima -- | Minima -- °F
--% Possibilità di precip.
Ieri
Massima -- | Minima -- °F
Precip. -- in
5:14 AM 8:13 PM
Luna crescente, 31% visible
Pressione 30.28 in
Visibilità 10.0 miglia
Nuvole Sereno
Punto di rugiada 26 °F
Umidità 30%
Piovosità 0.00 in
Spessore del manto nevoso Non disponibile.
Raggi UV 5.9 fuori da 12
Polline 9.70 fuori da 12
Qualità dell'aria Non disponibile.
Flu Activity Sporadic
METAR K1P1 231615Z AUTO 28009G20KT 10SM CLR 11/M02 A3028 RMK AO2 T01141021

More Conditions Fewer Conditions

Pressione 30.28 in
Visibilità 10.0 miglia
Nuvole Sereno
Punto di rugiada 26 °F
Umidità 30%
Piovosità 0.00 in
Spessore del manto nevoso Non disponibile.
Raggi UV 5.9 fuori da 12
Polline 9.70 fuori da 12
Qualità dell'aria Non disponibile.
Flu Activity Sporadic
METAR K1P1 231615Z AUTO 28009G20KT 10SM CLR 11/M02 A3028 RMK AO2 T01141021

More Conditions Fewer Conditions

10-Day Weather Forecast

Almanac

Astronomia

May. 23, 2015 Alba Tramonto
Ora attuale
Crepuscolo civile
Crepuscolo nautico
Crepuscolo astronomico
Luna
Estensione della luce visibile
Lunghezza del giorno
Tomorrow will be .
, % of the Moon is Illuminated

Gli estremi di oggi

State Highs State Lows

Community

WunderPhotos

Upload Photos

1,823,512 foto caricate!

WunderBlogs® & News

Nearby

Qualità dell'aria

  Qualità dell'aria Indice AQ Inquinante
Not available.

Profondità neve

Stazione Profondità Altitudine

Attività sismica

Città  Distanza Mag. Data & Ora
Minimo Magnitudo Mostrato è 2.5.

Temperature delle acque costiere

Località Temperatura

Stations

Stazioni meteo nelle vicinanze

Ubicazione della stazione Temp. Raffreddamento del vento Punto di rugiada Umidità Vento Precip. Alt. Aggiornato Tipo